Flight Track Log - Related Links

Times and Time Zones

All times are in EST time to prevent confusion due to time zone crossing. See the N650CH flight status page for this flight to view local times or setup timezone preferences in your user account.

Time Position Orientation Groundspeed Altitude Reporting Facility
EST Latitude Longitude Course Direction KTS MPH feet Rate Location/Type
Sun 03:32:11 PM 42.5128 -114.5439 76° East 228 262 7,100  Level Salt Lake Center
Sun 03:33:00 PM 42.5822 -114.0183 69° East  Level Estimated
Sun 03:33:13 PM 42.5450 -114.4519 65° Northeast 307 353 10,100  Level Salt Lake Center
Sun 03:34:00 PM 42.6152 -113.8615 71° East  Level Estimated
Sun 03:34:15 PM 42.5219 -114.3308 104° East 341 392 12,400  Level Salt Lake Center
Sun 03:35:00 PM 42.6481 -113.7046 71° East  Level Estimated
Sun 03:35:17 PM 42.5428 -114.1889 79° East 356 410 15,600  Level Salt Lake Center
Sun 03:36:00 PM 42.6807 -113.5474 70° East  Level Estimated
Sun 03:36:19 PM 42.5672 -114.0700 74° East 346 398 17,600  Level Salt Lake Center
Sun 03:37:00 PM 42.7091 -113.3887 76° East  Level FlightAware Approximate
Sun 03:37:20 PM 42.5981 -113.9297 73° East 367 422 19,300  Level Salt Lake Center
Sun 03:38:22 PM 42.6250 -113.8056 74° East 376 433 21,100 2,032 Climbing Salt Lake Center
Sun 03:39:24 PM 42.6608 -113.6369 74° East 385 443 23,500 2,032 Climbing Salt Lake Center
Sun 03:40:26 PM 42.6933 -113.4986 72° East 386 444 25,300 1,548 Climbing Salt Lake Center
Sun 03:41:28 PM 42.7228 -113.3622 74° East 392 451 26,700 1,484 Climbing Salt Lake Center
Sun 03:43:32 PM 42.7842 -113.0592 74° East 401 461 29,900 1,387 Climbing Salt Lake Center
Sun 03:44:34 PM 42.8192 -112.8942 74° East 406 467 31,000 1,016 Climbing Salt Lake Center
Sun 03:45:36 PM 42.8497 -112.7497 74° East 413 475 32,000 1,065 Climbing Salt Lake Center
Sun 03:46:38 PM 42.8833 -112.5778 75° East 421 484 33,200 1,073 Climbing Salt Lake Center
Sun 03:47:39 PM 42.9092 -112.4269 77° East 426 490 34,200 1,024 Climbing Salt Lake Center
Sun 03:48:41 PM 42.9408 -112.2558 76° East 420 483 35,300 1,016 Climbing Salt Lake Center
Sun 03:49:43 PM 42.9661 -112.1064 77° East 423 487 36,300 968 Climbing Salt Lake Center
Sun 03:50:45 PM 42.9936 -111.9589 76° East 421 484 37,300 726 Climbing Salt Lake Center
Sun 03:51:47 PM 43.0222 -111.7850 77° East 422 486 37,800 532 Climbing Salt Lake Center
Sun 03:52:49 PM 43.0475 -111.6350 77° East 425 489 38,400 532 Climbing Salt Lake Center
Sun 03:53:51 PM 43.0775 -111.4603 77° East 426 490 38,900 293 Climbing Salt Lake Center
Sun 03:54:52 PM 43.1028 -111.3094 77° East 427 491 39,000 49 Climbing Salt Lake Center
Sun 03:55:54 PM 43.1336 -111.1256 77° East 443 510 39,000  Level Salt Lake Center
Sun 03:56:56 PM 43.1589 -110.9675 78° East 445 512 39,000  Level Salt Lake Center
Sun 03:57:58 PM 43.1886 -110.7831 77° East 446 513 39,000  Level Salt Lake Center
Sun 03:58:59 PM 43.2144 -110.6233 77° East 449 517 39,000  Level Salt Lake Center
Sun 04:00:01 PM 43.2425 -110.4406 78° East 443 510 39,000  Level Salt Lake Center
Sun 04:01:03 PM 43.2703 -110.2647 78° East 449 517 39,000  Level Salt Lake Center
Sun 04:02:05 PM 43.2950 -110.1067 78° East 445 512 39,000 -49 Level Salt Lake Center
Sun 04:03:06 PM 43.3194 -109.9461 78° East 448 516 38,900  Descending Salt Lake Center
Sun 04:04:08 PM 43.3489 -109.7542 78° East 447 514 39,000 48 Climbing Salt Lake Center
Sun 04:05:10 PM 43.3744 -109.5894 78° East 444 511 39,000  Level Salt Lake Center
Sun 04:06:12 PM 43.3989 -109.4294 78° East 434 499 39,000  Level Salt Lake Center
Sun 04:07:13 PM 43.4222 -109.2728 78° East 425 489 39,000 390 Level Salt Lake Center
Sun 04:08:15 PM 43.4447 -109.1178 79° East 417 480 39,800 726 Climbing Salt Lake Center
Sun 04:09:17 PM 43.4683 -108.9656 78° East 410 472 40,500 585 Climbing Salt Lake Center
Sun 04:10:18 PM 43.4897 -108.8125 79° East 409 471 41,000 244 Climbing Salt Lake Center
Sun 04:11:20 PM 43.5167 -108.6261 79° East 416 479 41,000  Level Salt Lake Center
Sun 04:12:22 PM 43.5397 -108.4633 79° East 430 495 41,000  Level Salt Lake Center
Sun 04:13:23 PM 43.5622 -108.2950 79° East 443 510 41,000  Level Salt Lake Center
Sun 04:14:25 PM 43.5856 -108.1239 79° East 454 522 41,000  Level Salt Lake Center
Sun 04:15:27 PM 43.6086 -107.9500 80° East 461 531 41,000  Level Salt Lake Center
Sun 04:16:29 PM 43.6328 -107.7728 79° East 469 540 41,000  Level Salt Lake Center
Sun 04:17:30 PM 43.6606 -107.5589 80° East 474 545 41,000  Level Salt Lake Center
Sun 04:18:32 PM 43.6833 -107.3800 80° East 474 545 41,000 -48 Level Salt Lake Center
Sun 04:19:34 PM 43.7058 -107.1997 80° East 478 550 40,900  Descending Salt Lake Center
Sun 04:20:35 PM 43.7294 -107.0217 80° East 475 547 41,000  Climbing Salt Lake Center
Sun 04:21:37 PM 43.7528 -106.8183 81° East 480 552 40,900  Descending Salt Lake Center
Sun 04:22:08 PM 43.7658 -106.7272 79° East 485 558 41,000 65 Climbing Denver Center
Sun 04:23:10 PM 43.7878 -106.5519 80° East 484 557 41,000  Level Denver Center
Sun 04:24:12 PM 43.8133 -106.3436 80° East 489 563 41,000  Level Denver Center
Sun 04:25:14 PM 43.8339 -106.1653 81° East 490 564 41,000  Level Denver Center
Sun 04:26:16 PM 43.8583 -105.9561 81° East 492 566 41,000  Level Denver Center
Sun 04:27:18 PM 43.8783 -105.7778 81° East 490 564 41,000  Level Denver Center
Sun 04:28:20 PM 43.8953 -105.6278 81° East 491 565 41,000  Level Denver Center
Sun 04:29:23 PM 43.9233 -105.3867 81° East 494 568 41,000 -48 Level Denver Center
Sun 04:30:25 PM 43.9464 -105.1789 81° East 492 566 40,900 -48 Descending Denver Center
Sun 04:31:27 PM 43.9664 -104.9992 81° East 491 565 40,900 44 Level Denver Center
Sun 04:32:41 PM 43.9839 -104.8233 82° East 485 558 41,000 44 Climbing Denver Center
Sun 04:33:43 PM 44.0094 -104.5883 81° East 482 555 41,000  Level Denver Center
Sun 04:34:45 PM 44.0297 -104.3839 82° East 479 551 41,000  Level Denver Center
Sun 04:35:47 PM 44.0450 -104.2381 82° East 477 549 41,000 -48 Level Denver Center
Sun 04:36:49 PM 44.0675 -104.0050 82° East 477 549 40,900  Descending Denver Center
Sun 04:37:51 PM 44.0850 -103.8306 82° East 476 548 41,000 48 Climbing Denver Center
Sun 04:38:53 PM 44.1031 -103.6572 82° East 474 545 41,000  Level Denver Center
Sun 04:39:55 PM 44.1222 -103.4539 82° East 474 545 41,000  Level Denver Center
Sun 04:40:57 PM 44.1381 -103.2789 83° East 475 547 41,000  Level Denver Center
Sun 04:41:59 PM 44.1564 -103.0747 83° East 476 548 41,000  Level Denver Center
Sun 04:43:01 PM 44.1719 -102.8903 83° East 477 549 41,000  Level Denver Center
Sun 04:44:03 PM 44.1878 -102.7061 83° East 480 552 41,000  Level Denver Center
Sun 04:45:05 PM 44.2039 -102.5247 83° East 477 549 41,000  Level Denver Center
Sun 04:46:07 PM 44.2206 -102.3422 83° East 476 548 41,000  Level Denver Center
Sun 04:47:09 PM 44.2367 -102.1214 84° East 478 550 41,000  Level Denver Center
Sun 04:48:11 PM 44.2519 -101.9383 83° East 477 549 41,000 -48 Level Denver Center
Sun 04:49:13 PM 44.2672 -101.7561 83° East 476 548 40,900  Descending Denver Center
Sun 04:50:15 PM 44.2800 -101.6103 83° East 476 548 41,000  Climbing Denver Center
Sun 04:51:17 PM 44.3072 -101.3950 80° East 474 545 40,900  Descending Denver Center
Sun 04:52:20 PM 44.3267 -101.2139 81° East 473 544 41,000 48 Climbing Denver Center
Sun 04:53:22 PM 44.3500 -100.9964 81° East 474 545 41,000 -47 Level Denver Center
Sun 04:54:28 PM 44.3694 -100.8158 81° East 474 545 40,900  Descending Minneapolis Center
Sun 04:55:29 PM 44.3872 -100.6303 82° East 479 551 41,000 49 Climbing Minneapolis Center
Sun 04:56:31 PM 44.4100 -100.4100 82° East 479 551 41,000  Level Minneapolis Center
Sun 04:57:32 PM 44.4281 -100.2261 82° East 481 554 41,000  Level Minneapolis Center
Sun 04:58:34 PM 44.4453 -100.0422 82° East 481 554 41,000  Level Minneapolis Center
Sun 04:59:36 PM 44.4631 -99.8597 82° East 479 551 41,000  Level Minneapolis Center
Sun 05:00:38 PM 44.4797 -99.6750 83° East 481 554 41,000  Level Minneapolis Center
Sun 05:01:40 PM 44.4969 -99.4914 82° East 481 554 41,000  Level Minneapolis Center
Sun 05:02:41 PM 44.5178 -99.2694 82° East 482 555 41,000 -49 Level Minneapolis Center
Sun 05:03:43 PM 44.5325 -99.0833 84° East 483 556 40,900  Descending Minneapolis Center
Sun 05:04:45 PM 44.5500 -98.8961 82° East 486 559 41,000  Climbing Minneapolis Center
Sun 05:05:46 PM 44.5650 -98.7089 84° East 486 559 40,900  Descending Minneapolis Center
Sun 05:06:48 PM 44.5808 -98.5217 83° East 486 559 41,000 49 Climbing Minneapolis Center
Sun 05:07:49 PM 44.5969 -98.3131 84° East 490 564 41,000  Level Minneapolis Center
Sun 05:08:51 PM 44.6119 -98.1239 84° East 490 564 41,000  Level Minneapolis Center
Sun 05:09:53 PM 44.6264 -97.9328 84° East 492 566 41,000  Level Minneapolis Center
Sun 05:10:54 PM 44.6403 -97.7417 84° East 493 567 41,000  Level Minneapolis Center
Sun 05:11:56 PM 44.6553 -97.5492 84° East 497 572 41,000  Level Minneapolis Center
Sun 05:12:57 PM 44.6689 -97.3558 84° East 498 573 41,000  Level Minneapolis Center
Sun 05:13:59 PM 44.6850 -97.1239 84° East 498 573 41,000 -49 Level Minneapolis Center
Sun 05:15:00 PM 44.6992 -96.9306 84° East 497 572 40,900 -732 Descending Minneapolis Center
Sun 05:16:02 PM 44.7097 -96.7375 86° East 496 571 39,500 -1,756 Descending Minneapolis Center
Sun 05:17:03 PM 44.7225 -96.5406 85° East 502 578 37,300 -2,311 Descending Minneapolis Center
Sun 05:18:04 PM 44.7364 -96.3506 84° East 489 563 34,800 -2,341 Descending Minneapolis Center
Sun 05:19:06 PM 44.7464 -96.1611 86° East 486 559 32,500 -2,293 Descending Minneapolis Center
Sun 05:20:07 PM 44.7583 -95.9822 85° East 464 534 30,100 -2,341 Descending Minneapolis Center
Sun 05:21:09 PM 44.7683 -95.8108 85° East 444 511 27,700 -2,341 Descending Minneapolis Center
Sun 05:22:10 PM 44.7783 -95.6425 85° East 434 499 25,300 -2,311 Descending Minneapolis Center
Sun 05:23:11 PM 44.7872 -95.4758 86° East 429 494 23,000 -2,115 Descending Minneapolis Center
Sun 05:24:12 PM 44.7961 -95.3122 86° East 421 484 21,000 -2,146 Descending Minneapolis Center
Sun 05:25:14 PM 44.8064 -95.1158 86° East 420 483 18,600 -1,902 Descending Minneapolis Center
Sun 05:26:15 PM 44.8142 -94.9569 86° East 412 474 17,100 -1,721 Descending Minneapolis Center
Sun 05:27:16 PM 44.8225 -94.8033 86° East 400 460 15,100 -1,951 Descending Minneapolis Center
Sun 05:28:18 PM 44.8294 -94.6558 86° East 386 444 13,100 -1,854 Descending Minneapolis Center
Sun 05:29:19 PM 44.8367 -94.5247 86° East 373 429 11,300 -1,820 Descending Minneapolis Center
Sun 05:30:20 PM 44.8417 -94.3869 87° East 356 410 9,400 -1,574 Descending Minneapolis Center
Sun 05:31:21 PM 44.8500 -94.2258 86° East 343 395 8,100 -1,122 Descending Minneapolis Center
Sun 05:32:23 PM 44.8639 -94.1042 81° East 314 361 7,100 -1,024 Descending Minneapolis Center
Sun 05:33:24 PM 44.8531 -93.9836 97° East 313 360 6,000 -1,033 Descending Minneapolis Center
Sun 05:34:25 PM 44.8358 -93.8631 101° East 313 360 5,000 -488 Descending Minneapolis Center
Sun 05:35:27 PM 44.8236 -93.7517 99° East 291 335 5,000  Level Minneapolis Center
Sun 05:36:28 PM 44.8097 -93.6475 101° East 275 316 5,000  Level Minneapolis Center
Sun 05:37:29 PM 44.7992 -93.5586 99° East 231 266 5,000  Level Minneapolis Center
Sun 05:38:30 PM 44.7872 -93.4728 101° East 223 257 5,000  Level Minneapolis Center
Sun 05:39:32 PM 44.7806 -93.3861 96° East 225 259 5,000  Level Minneapolis Center
Sun 05:40:33 PM 44.8075 -93.3108 63° Northeast 214 246 5,000  Level Minneapolis Center
Sun 05:41:34 PM 44.8358 -93.2353 62° Northeast 214 246 5,000 -295 Level Minneapolis Center
Sun 05:42:35 PM 44.8794 -93.1803 42° Northeast 207 238 4,400 -1,171 Descending Minneapolis Center
Sun 05:43:37 PM 44.9217 -93.0944 55° Northeast 220 253 2,600 -1,024 Descending Minneapolis Center
Sun 05:44:38 PM 44.9506 -93.0289 58° Northeast 200 230 2,300 -344 Descending Minneapolis Center
Sun 05:45:39 PM 44.9183 -93.0000 148° Southeast 163 188 1,900 -590 Descending Minneapolis Center
Sun 05:46:40 PM 44.9119 -93.0461 259° West 131 151 1,100 -787 Descending Minneapolis Center

Login

Don't have an account? Register now (free) for customized features, flight alerts, and more!